sensor_id;sensor_type;location;lat;lon;timestamp;P1;durP1;ratioP1;P2;durP2;ratioP2
72095;SDS011;59968;51.084;16.748;2023-11-21T00:00:47;4.90;;;1.80;;
72095;SDS011;59968;51.084;16.748;2023-11-21T00:03:35;3.90;;;1.60;;
72095;SDS011;59968;51.084;16.748;2023-11-21T00:06:04;6.00;;;1.70;;
72095;SDS011;59968;51.084;16.748;2023-11-21T00:08:36;5.40;;;1.80;;
72095;SDS011;59968;51.084;16.748;2023-11-21T00:11:05;5.60;;;1.60;;
72095;SDS011;59968;51.084;16.748;2023-11-21T00:13:33;4.50;;;1.90;;
72095;SDS011;59968;51.084;16.748;2023-11-21T00:16:02;6.60;;;1.80;;
72095;SDS011;59968;51.084;16.748;2023-11-21T00:18:32;4.40;;;1.60;;
72095;SDS011;59968;51.084;16.748;2023-11-21T00:21:00;6.40;;;1.70;;
72095;SDS011;59968;51.084;16.748;2023-11-21T00:23:29;5.00;;;1.60;;
72095;SDS011;59968;51.084;16.748;2023-11-21T00:25:57;6.20;;;1.70;;
72095;SDS011;59968;51.084;16.748;2023-11-21T00:28:25;6.60;;;2.90;;
72095;SDS011;59968;51.084;16.748;2023-11-21T00:30:54;7.00;;;2.00;;
72095;SDS011;59968;51.084;16.748;2023-11-21T00:33:22;6.20;;;1.90;;
72095;SDS011;59968;51.084;16.748;2023-11-21T00:35:52;5.00;;;1.80;;
72095;SDS011;59968;51.084;16.748;2023-11-21T00:38:20;5.70;;;1.90;;
72095;SDS011;59968;51.084;16.748;2023-11-21T00:40:48;7.90;;;2.20;;
72095;SDS011;59968;51.084;16.748;2023-11-21T00:43:16;5.10;;;1.90;;
72095;SDS011;59968;51.084;16.748;2023-11-21T00:45:44;4.50;;;1.80;;
72095;SDS011;59968;51.084;16.748;2023-11-21T00:48:13;7.00;;;1.70;;
72095;SDS011;59968;51.084;16.748;2023-11-21T00:50:41;7.90;;;1.90;;
72095;SDS011;59968;51.084;16.748;2023-11-21T00:53:09;9.70;;;2.70;;
72095;SDS011;59968;51.084;16.748;2023-11-21T00:55:39;5.50;;;2.00;;
72095;SDS011;59968;51.084;16.748;2023-11-21T00:58:08;5.80;;;1.80;;
72095;SDS011;59968;51.084;16.748;2023-11-21T01:00:36;3.20;;;1.50;;
72095;SDS011;59968;51.084;16.748;2023-11-21T01:03:07;6.00;;;1.80;;
72095;SDS011;59968;51.084;16.748;2023-11-21T01:05:36;4.80;;;2.00;;
72095;SDS011;59968;51.084;16.748;2023-11-21T01:08:04;9.00;;;2.10;;
72095;SDS011;59968;51.084;16.748;2023-11-21T01:10:33;5.50;;;2.10;;
72095;SDS011;59968;51.084;16.748;2023-11-21T01:13:05;7.80;;;1.70;;
72095;SDS011;59968;51.084;16.748;2023-11-21T01:15:37;7.70;;;2.10;;
72095;SDS011;59968;51.084;16.748;2023-11-21T01:18:05;5.40;;;2.50;;
72095;SDS011;59968;51.084;16.748;2023-11-21T01:20:33;6.30;;;2.40;;
72095;SDS011;59968;51.084;16.748;2023-11-21T01:23:01;5.40;;;2.00;;
72095;SDS011;59968;51.084;16.748;2023-11-21T01:25:30;6.60;;;2.50;;
72095;SDS011;59968;51.084;16.748;2023-11-21T01:27:58;13.90;;;2.20;;
72095;SDS011;59968;51.084;16.748;2023-11-21T01:30:26;5.60;;;2.00;;
72095;SDS011;59968;51.084;16.748;2023-11-21T01:32:54;8.70;;;2.30;;
72095;SDS011;59968;51.084;16.748;2023-11-21T01:35:23;8.20;;;2.60;;
72095;SDS011;59968;51.084;16.748;2023-11-21T01:37:51;8.00;;;2.70;;
72095;SDS011;59968;51.084;16.748;2023-11-21T01:40:19;5.80;;;2.00;;
72095;SDS011;59968;51.084;16.748;2023-11-21T01:42:47;5.90;;;1.90;;
72095;SDS011;59968;51.084;16.748;2023-11-21T01:45:16;5.50;;;1.80;;
72095;SDS011;59968;51.084;16.748;2023-11-21T01:47:44;8.60;;;2.00;;
72095;SDS011;59968;51.084;16.748;2023-11-21T01:50:13;4.40;;;2.00;;
72095;SDS011;59968;51.084;16.748;2023-11-21T01:52:46;4.30;;;2.00;;
72095;SDS011;59968;51.084;16.748;2023-11-21T01:55:17;7.00;;;2.20;;
72095;SDS011;59968;51.084;16.748;2023-11-21T01:57:55;5.20;;;2.30;;
72095;SDS011;59968;51.084;16.748;2023-11-21T02:00:25;6.90;;;2.80;;
72095;SDS011;59968;51.084;16.748;2023-11-21T02:02:57;5.10;;;2.00;;
72095;SDS011;59968;51.084;16.748;2023-11-21T02:05:27;4.60;;;2.00;;
72095;SDS011;59968;51.084;16.748;2023-11-21T02:07:58;7.00;;;2.50;;
72095;SDS011;59968;51.084;16.748;2023-11-21T02:10:28;5.90;;;2.30;;
72095;SDS011;59968;51.084;16.748;2023-11-21T02:12:59;6.10;;;2.30;;
72095;SDS011;59968;51.084;16.748;2023-11-21T02:15:30;5.30;;;2.30;;
72095;SDS011;59968;51.084;16.748;2023-11-21T02:17:59;5.80;;;2.00;;
72095;SDS011;59968;51.084;16.748;2023-11-21T02:20:28;6.10;;;2.20;;
72095;SDS011;59968;51.084;16.748;2023-11-21T02:22:57;5.90;;;1.90;;
72095;SDS011;59968;51.084;16.748;2023-11-21T02:25:27;6.20;;;2.30;;
72095;SDS011;59968;51.084;16.748;2023-11-21T02:27:58;6.00;;;2.10;;
72095;SDS011;59968;51.084;16.748;2023-11-21T02:30:28;6.40;;;2.50;;
72095;SDS011;59968;51.084;16.748;2023-11-21T02:32:58;5.90;;;2.30;;
72095;SDS011;59968;51.084;16.748;2023-11-21T02:35:27;7.10;;;2.40;;
72095;SDS011;59968;51.084;16.748;2023-11-21T02:37:55;5.50;;;2.10;;
72095;SDS011;59968;51.084;16.748;2023-11-21T02:40:25;7.60;;;2.80;;
72095;SDS011;59968;51.084;16.748;2023-11-21T02:42:55;6.20;;;2.40;;
72095;SDS011;59968;51.084;16.748;2023-11-21T02:45:23;7.60;;;2.70;;
72095;SDS011;59968;51.084;16.748;2023-11-21T02:47:52;7.10;;;2.80;;
72095;SDS011;59968;51.084;16.748;2023-11-21T02:50:26;6.00;;;2.20;;
72095;SDS011;59968;51.084;16.748;2023-11-21T02:52:55;8.10;;;2.40;;
72095;SDS011;59968;51.084;16.748;2023-11-21T02:55:26;8.90;;;2.80;;
72095;SDS011;59968;51.084;16.748;2023-11-21T02:57:55;7.90;;;2.80;;
72095;SDS011;59968;51.084;16.748;2023-11-21T03:00:26;7.80;;;2.60;;
72095;SDS011;59968;51.084;16.748;2023-11-21T03:02:55;5.20;;;2.40;;
72095;SDS011;59968;51.084;16.748;2023-11-21T03:05:26;6.40;;;2.80;;
72095;SDS011;59968;51.084;16.748;2023-11-21T03:07:54;5.40;;;2.10;;
72095;SDS011;59968;51.084;16.748;2023-11-21T03:10:23;6.70;;;2.30;;
72095;SDS011;59968;51.084;16.748;2023-11-21T03:12:51;6.00;;;2.50;;
72095;SDS011;59968;51.084;16.748;2023-11-21T03:15:20;6.20;;;2.10;;
72095;SDS011;59968;51.084;16.748;2023-11-21T03:17:49;5.20;;;2.50;;
72095;SDS011;59968;51.084;16.748;2023-11-21T03:20:17;5.90;;;2.20;;
72095;SDS011;59968;51.084;16.748;2023-11-21T03:22:46;6.90;;;2.50;;
72095;SDS011;59968;51.084;16.748;2023-11-21T03:25:15;8.50;;;2.30;;
72095;SDS011;59968;51.084;16.748;2023-11-21T03:27:45;5.30;;;2.00;;
72095;SDS011;59968;51.084;16.748;2023-11-21T03:30:13;6.50;;;2.20;;
72095;SDS011;59968;51.084;16.748;2023-11-21T03:32:42;4.70;;;2.00;;
72095;SDS011;59968;51.084;16.748;2023-11-21T03:35:11;5.90;;;2.20;;
72095;SDS011;59968;51.084;16.748;2023-11-21T03:37:39;5.90;;;1.80;;
72095;SDS011;59968;51.084;16.748;2023-11-21T03:40:10;6.20;;;1.80;;
72095;SDS011;59968;51.084;16.748;2023-11-21T03:42:38;6.30;;;2.60;;
72095;SDS011;59968;51.084;16.748;2023-11-21T03:45:07;8.30;;;2.50;;
72095;SDS011;59968;51.084;16.748;2023-11-21T03:47:36;6.20;;;2.40;;
72095;SDS011;59968;51.084;16.748;2023-11-21T03:50:05;3.90;;;2.40;;
72095;SDS011;59968;51.084;16.748;2023-11-21T03:52:33;7.80;;;2.10;;
72095;SDS011;59968;51.084;16.748;2023-11-21T03:55:02;7.30;;;2.30;;
72095;SDS011;59968;51.084;16.748;2023-11-21T03:57:30;7.60;;;2.40;;
72095;SDS011;59968;51.084;16.748;2023-11-21T03:59:58;5.50;;;2.20;;
72095;SDS011;59968;51.084;16.748;2023-11-21T04:02:27;4.50;;;2.00;;
72095;SDS011;59968;51.084;16.748;2023-11-21T04:04:56;6.30;;;1.70;;
72095;SDS011;59968;51.084;16.748;2023-11-21T04:07:24;6.20;;;2.30;;
72095;SDS011;59968;51.084;16.748;2023-11-21T04:09:52;4.90;;;2.30;;
72095;SDS011;59968;51.084;16.748;2023-11-21T04:12:21;6.50;;;2.70;;
72095;SDS011;59968;51.084;16.748;2023-11-21T04:14:50;5.20;;;2.10;;
72095;SDS011;59968;51.084;16.748;2023-11-21T04:17:21;7.20;;;2.60;;
72095;SDS011;59968;51.084;16.748;2023-11-21T04:19:49;7.50;;;2.80;;
72095;SDS011;59968;51.084;16.748;2023-11-21T04:22:17;7.80;;;2.40;;
72095;SDS011;59968;51.084;16.748;2023-11-21T04:24:46;5.00;;;2.40;;
72095;SDS011;59968;51.084;16.748;2023-11-21T04:27:14;6.20;;;2.10;;
72095;SDS011;59968;51.084;16.748;2023-11-21T04:29:42;6.00;;;2.30;;
72095;SDS011;59968;51.084;16.748;2023-11-21T04:32:10;6.60;;;2.50;;
72095;SDS011;59968;51.084;16.748;2023-11-21T04:34:38;6.80;;;2.40;;
72095;SDS011;59968;51.084;16.748;2023-11-21T04:37:07;8.40;;;2.80;;
72095;SDS011;59968;51.084;16.748;2023-11-21T04:39:35;7.70;;;2.40;;
72095;SDS011;59968;51.084;16.748;2023-11-21T04:42:03;7.40;;;2.60;;
72095;SDS011;59968;51.084;16.748;2023-11-21T04:44:32;7.70;;;2.60;;
72095;SDS011;59968;51.084;16.748;2023-11-21T04:47:00;7.40;;;2.40;;
72095;SDS011;59968;51.084;16.748;2023-11-21T04:49:29;9.30;;;3.00;;
72095;SDS011;59968;51.084;16.748;2023-11-21T04:51:57;8.50;;;2.80;;
72095;SDS011;59968;51.084;16.748;2023-11-21T04:54:25;10.20;;;3.10;;
72095;SDS011;59968;51.084;16.748;2023-11-21T04:56:55;9.40;;;2.80;;
72095;SDS011;59968;51.084;16.748;2023-11-21T04:59:25;7.80;;;2.40;;
72095;SDS011;59968;51.084;16.748;2023-11-21T05:01:57;8.20;;;3.10;;
72095;SDS011;59968;51.084;16.748;2023-11-21T05:04:28;7.80;;;2.00;;
72095;SDS011;59968;51.084;16.748;2023-11-21T05:06:57;7.80;;;2.90;;
72095;SDS011;59968;51.084;16.748;2023-11-21T05:09:25;6.20;;;2.40;;
72095;SDS011;59968;51.084;16.748;2023-11-21T05:11:54;5.60;;;2.50;;
72095;SDS011;59968;51.084;16.748;2023-11-21T05:14:22;7.30;;;2.90;;
72095;SDS011;59968;51.084;16.748;2023-11-21T05:16:50;5.80;;;2.40;;
72095;SDS011;59968;51.084;16.748;2023-11-21T05:19:19;9.30;;;2.20;;
72095;SDS011;59968;51.084;16.748;2023-11-21T05:21:48;8.50;;;2.90;;
72095;SDS011;59968;51.084;16.748;2023-11-21T05:24:17;6.90;;;2.70;;
72095;SDS011;59968;51.084;16.748;2023-11-21T05:26:45;4.50;;;2.10;;
72095;SDS011;59968;51.084;16.748;2023-11-21T05:29:13;7.70;;;2.80;;
72095;SDS011;59968;51.084;16.748;2023-11-21T05:31:41;6.00;;;2.40;;
72095;SDS011;59968;51.084;16.748;2023-11-21T05:34:10;8.10;;;2.50;;
72095;SDS011;59968;51.084;16.748;2023-11-21T05:36:51;6.90;;;2.70;;
72095;SDS011;59968;51.084;16.748;2023-11-21T05:39:19;6.00;;;2.20;;
72095;SDS011;59968;51.084;16.748;2023-11-21T05:41:49;7.30;;;2.20;;
72095;SDS011;59968;51.084;16.748;2023-11-21T05:44:17;8.70;;;2.40;;
72095;SDS011;59968;51.084;16.748;2023-11-21T05:46:45;6.00;;;2.50;;
72095;SDS011;59968;51.084;16.748;2023-11-21T05:49:14;7.20;;;2.90;;
72095;SDS011;59968;51.084;16.748;2023-11-21T05:51:43;7.90;;;2.70;;
72095;SDS011;59968;51.084;16.748;2023-11-21T05:54:13;6.70;;;2.40;;
72095;SDS011;59968;51.084;16.748;2023-11-21T05:56:41;6.00;;;2.30;;
72095;SDS011;59968;51.084;16.748;2023-11-21T05:59:09;4.10;;;1.60;;
72095;SDS011;59968;51.084;16.748;2023-11-21T06:01:38;7.00;;;2.80;;
72095;SDS011;59968;51.084;16.748;2023-11-21T06:04:07;7.70;;;2.20;;
72095;SDS011;59968;51.084;16.748;2023-11-21T06:06:38;9.60;;;3.00;;
72095;SDS011;59968;51.084;16.748;2023-11-21T06:09:06;7.30;;;2.60;;
72095;SDS011;59968;51.084;16.748;2023-11-21T06:11:36;5.70;;;2.60;;
72095;SDS011;59968;51.084;16.748;2023-11-21T06:14:05;10.60;;;3.20;;
72095;SDS011;59968;51.084;16.748;2023-11-21T06:16:36;9.30;;;3.40;;
72095;SDS011;59968;51.084;16.748;2023-11-21T06:19:04;9.00;;;3.00;;
72095;SDS011;59968;51.084;16.748;2023-11-21T06:21:33;7.80;;;2.40;;
72095;SDS011;59968;51.084;16.748;2023-11-21T06:24:02;9.00;;;2.90;;
72095;SDS011;59968;51.084;16.748;2023-11-21T06:26:30;5.80;;;2.70;;
72095;SDS011;59968;51.084;16.748;2023-11-21T06:28:59;5.90;;;2.70;;
72095;SDS011;59968;51.084;16.748;2023-11-21T06:31:29;5.70;;;2.30;;
72095;SDS011;59968;51.084;16.748;2023-11-21T06:33:57;8.50;;;3.00;;
72095;SDS011;59968;51.084;16.748;2023-11-21T06:36:27;8.80;;;2.20;;
72095;SDS011;59968;51.084;16.748;2023-11-21T06:38:56;7.40;;;2.70;;
72095;SDS011;59968;51.084;16.748;2023-11-21T06:41:24;7.50;;;2.90;;
72095;SDS011;59968;51.084;16.748;2023-11-21T06:43:52;7.60;;;2.50;;
72095;SDS011;59968;51.084;16.748;2023-11-21T06:46:21;6.20;;;2.50;;
72095;SDS011;59968;51.084;16.748;2023-11-21T06:48:49;6.80;;;2.70;;
72095;SDS011;59968;51.084;16.748;2023-11-21T06:51:18;6.70;;;3.00;;
72095;SDS011;59968;51.084;16.748;2023-11-21T06:53:47;5.80;;;2.30;;
72095;SDS011;59968;51.084;16.748;2023-11-21T06:56:18;6.00;;;2.50;;
72095;SDS011;59968;51.084;16.748;2023-11-21T06:58:47;7.10;;;2.70;;
72095;SDS011;59968;51.084;16.748;2023-11-21T07:01:15;7.30;;;2.20;;
72095;SDS011;59968;51.084;16.748;2023-11-21T07:03:44;10.90;;;3.10;;
72095;SDS011;59968;51.084;16.748;2023-11-21T07:06:13;8.70;;;3.20;;
72095;SDS011;59968;51.084;16.748;2023-11-21T07:08:44;7.70;;;2.70;;
72095;SDS011;59968;51.084;16.748;2023-11-21T07:11:13;8.40;;;2.50;;
72095;SDS011;59968;51.084;16.748;2023-11-21T07:13:41;9.10;;;3.00;;
72095;SDS011;59968;51.084;16.748;2023-11-21T07:16:10;8.40;;;2.60;;
72095;SDS011;59968;51.084;16.748;2023-11-21T07:18:38;7.00;;;2.70;;
72095;SDS011;59968;51.084;16.748;2023-11-21T07:21:08;7.50;;;2.70;;
72095;SDS011;59968;51.084;16.748;2023-11-21T07:23:36;7.60;;;2.80;;
72095;SDS011;59968;51.084;16.748;2023-11-21T07:26:05;9.30;;;3.00;;
72095;SDS011;59968;51.084;16.748;2023-11-21T07:28:37;7.70;;;3.50;;
72095;SDS011;59968;51.084;16.748;2023-11-21T07:31:05;9.60;;;3.70;;
72095;SDS011;59968;51.084;16.748;2023-11-21T07:33:34;8.50;;;3.20;;
72095;SDS011;59968;51.084;16.748;2023-11-21T07:36:02;10.10;;;3.60;;
72095;SDS011;59968;51.084;16.748;2023-11-21T07:38:31;10.00;;;3.10;;
72095;SDS011;59968;51.084;16.748;2023-11-21T07:41:01;8.30;;;3.10;;
72095;SDS011;59968;51.084;16.748;2023-11-21T07:43:29;8.00;;;2.70;;
72095;SDS011;59968;51.084;16.748;2023-11-21T07:46:03;8.30;;;2.80;;
72095;SDS011;59968;51.084;16.748;2023-11-21T07:48:32;7.10;;;3.00;;
72095;SDS011;59968;51.084;16.748;2023-11-21T07:51:02;8.20;;;3.20;;
72095;SDS011;59968;51.084;16.748;2023-11-21T07:53:35;8.20;;;3.00;;
72095;SDS011;59968;51.084;16.748;2023-11-21T07:56:04;9.10;;;3.20;;
72095;SDS011;59968;51.084;16.748;2023-11-21T07:58:34;8.00;;;3.10;;
72095;SDS011;59968;51.084;16.748;2023-11-21T08:01:03;7.00;;;2.60;;
72095;SDS011;59968;51.084;16.748;2023-11-21T08:03:32;6.20;;;2.60;;
72095;SDS011;59968;51.084;16.748;2023-11-21T08:06:01;6.60;;;2.90;;
72095;SDS011;59968;51.084;16.748;2023-11-21T08:08:31;7.20;;;2.40;;
72095;SDS011;59968;51.084;16.748;2023-11-21T08:11:00;8.20;;;2.90;;
72095;SDS011;59968;51.084;16.748;2023-11-21T08:13:30;6.40;;;2.90;;
72095;SDS011;59968;51.084;16.748;2023-11-21T08:16:01;6.40;;;2.60;;
72095;SDS011;59968;51.084;16.748;2023-11-21T08:18:31;7.20;;;2.80;;
72095;SDS011;59968;51.084;16.748;2023-11-21T08:21:00;9.60;;;3.00;;
72095;SDS011;59968;51.084;16.748;2023-11-21T08:23:29;7.40;;;3.00;;
72095;SDS011;59968;51.084;16.748;2023-11-21T08:25:57;7.20;;;2.80;;
72095;SDS011;59968;51.084;16.748;2023-11-21T08:28:27;6.90;;;2.80;;
72095;SDS011;59968;51.084;16.748;2023-11-21T08:30:56;7.20;;;2.80;;
72095;SDS011;59968;51.084;16.748;2023-11-21T08:33:24;6.30;;;2.60;;
72095;SDS011;59968;51.084;16.748;2023-11-21T08:35:52;8.60;;;2.70;;
72095;SDS011;59968;51.084;16.748;2023-11-21T08:38:21;5.40;;;2.60;;
72095;SDS011;59968;51.084;16.748;2023-11-21T08:40:50;7.40;;;3.00;;
72095;SDS011;59968;51.084;16.748;2023-11-21T08:43:18;7.60;;;3.30;;
72095;SDS011;59968;51.084;16.748;2023-11-21T08:45:48;9.00;;;2.60;;
72095;SDS011;59968;51.084;16.748;2023-11-21T08:48:16;8.00;;;2.80;;
72095;SDS011;59968;51.084;16.748;2023-11-21T08:50:45;9.20;;;3.30;;
72095;SDS011;59968;51.084;16.748;2023-11-21T08:53:14;7.70;;;3.20;;
72095;SDS011;59968;51.084;16.748;2023-11-21T08:55:45;7.60;;;3.40;;
72095;SDS011;59968;51.084;16.748;2023-11-21T08:58:13;8.60;;;2.90;;
72095;SDS011;59968;51.084;16.748;2023-11-21T09:00:41;7.80;;;2.70;;
72095;SDS011;59968;51.084;16.748;2023-11-21T09:03:10;8.50;;;2.60;;
72095;SDS011;59968;51.084;16.748;2023-11-21T09:05:39;7.80;;;3.00;;
72095;SDS011;59968;51.084;16.748;2023-11-21T09:08:08;6.10;;;2.10;;
72095;SDS011;59968;51.084;16.748;2023-11-21T09:10:36;9.50;;;2.80;;
72095;SDS011;59968;51.084;16.748;2023-11-21T09:13:05;6.70;;;2.10;;
72095;SDS011;59968;51.084;16.748;2023-11-21T09:15:33;6.10;;;2.00;;
72095;SDS011;59968;51.084;16.748;2023-11-21T09:18:02;5.80;;;2.30;;
72095;SDS011;59968;51.084;16.748;2023-11-21T09:20:30;5.40;;;2.50;;
72095;SDS011;59968;51.084;16.748;2023-11-21T09:22:59;6.30;;;2.40;;
72095;SDS011;59968;51.084;16.748;2023-11-21T09:25:27;6.10;;;2.60;;
72095;SDS011;59968;51.084;16.748;2023-11-21T09:27:57;5.10;;;1.90;;
72095;SDS011;59968;51.084;16.748;2023-11-21T09:30:26;7.40;;;3.20;;
72095;SDS011;59968;51.084;16.748;2023-11-21T09:32:54;6.00;;;2.50;;
72095;SDS011;59968;51.084;16.748;2023-11-21T09:35:23;6.70;;;2.80;;
72095;SDS011;59968;51.084;16.748;2023-11-21T09:37:52;7.00;;;3.00;;
72095;SDS011;59968;51.084;16.748;2023-11-21T09:40:21;8.40;;;2.60;;
72095;SDS011;59968;51.084;16.748;2023-11-21T09:42:54;5.50;;;2.30;;
72095;SDS011;59968;51.084;16.748;2023-11-21T09:45:29;5.00;;;2.20;;
72095;SDS011;59968;51.084;16.748;2023-11-21T09:48:02;6.70;;;2.40;;
72095;SDS011;59968;51.084;16.748;2023-11-21T09:50:31;7.00;;;2.70;;
72095;SDS011;59968;51.084;16.748;2023-11-21T09:53:11;4.50;;;2.30;;
72095;SDS011;59968;51.084;16.748;2023-11-21T09:55:47;5.60;;;1.80;;
72095;SDS011;59968;51.084;16.748;2023-11-21T09:58:16;6.50;;;2.50;;
72095;SDS011;59968;51.084;16.748;2023-11-21T10:00:46;7.40;;;2.70;;
72095;SDS011;59968;51.084;16.748;2023-11-21T10:03:15;4.70;;;2.20;;
72095;SDS011;59968;51.084;16.748;2023-11-21T10:05:45;5.50;;;2.50;;
72095;SDS011;59968;51.084;16.748;2023-11-21T10:08:16;5.50;;;2.40;;
72095;SDS011;59968;51.084;16.748;2023-11-21T10:10:46;6.90;;;2.70;;
72095;SDS011;59968;51.084;16.748;2023-11-21T10:13:19;9.10;;;3.30;;
72095;SDS011;59968;51.084;16.748;2023-11-21T10:15:49;5.60;;;2.60;;
72095;SDS011;59968;51.084;16.748;2023-11-21T10:18:20;6.60;;;2.50;;
72095;SDS011;59968;51.084;16.748;2023-11-21T10:20:51;3.70;;;1.70;;
72095;SDS011;59968;51.084;16.748;2023-11-21T10:23:22;6.10;;;2.50;;
72095;SDS011;59968;51.084;16.748;2023-11-21T10:25:52;4.80;;;2.30;;
72095;SDS011;59968;51.084;16.748;2023-11-21T10:28:22;4.80;;;2.50;;
72095;SDS011;59968;51.084;16.748;2023-11-21T10:30:50;5.40;;;3.00;;
72095;SDS011;59968;51.084;16.748;2023-11-21T10:33:26;4.90;;;2.60;;
72095;SDS011;59968;51.084;16.748;2023-11-21T10:35:57;6.80;;;2.90;;
72095;SDS011;59968;51.084;16.748;2023-11-21T10:38:25;5.00;;;2.20;;
72095;SDS011;59968;51.084;16.748;2023-11-21T10:40:55;5.20;;;2.90;;
72095;SDS011;59968;51.084;16.748;2023-11-21T10:43:25;6.80;;;2.50;;
72095;SDS011;59968;51.084;16.748;2023-11-21T10:45:57;6.60;;;3.30;;
72095;SDS011;59968;51.084;16.748;2023-11-21T10:48:27;7.90;;;3.10;;
72095;SDS011;59968;51.084;16.748;2023-11-21T10:50:55;6.40;;;3.30;;
72095;SDS011;59968;51.084;16.748;2023-11-21T10:53:27;5.20;;;2.80;;
72095;SDS011;59968;51.084;16.748;2023-11-21T10:56:05;6.40;;;3.10;;
72095;SDS011;59968;51.084;16.748;2023-11-21T10:58:36;6.80;;;3.30;;
72095;SDS011;59968;51.084;16.748;2023-11-21T11:01:07;8.70;;;3.80;;
72095;SDS011;59968;51.084;16.748;2023-11-21T11:03:36;5.90;;;2.70;;
72095;SDS011;59968;51.084;16.748;2023-11-21T11:06:06;6.60;;;3.60;;
72095;SDS011;59968;51.084;16.748;2023-11-21T11:08:39;8.20;;;3.60;;
72095;SDS011;59968;51.084;16.748;2023-11-21T11:11:09;6.60;;;3.50;;
72095;SDS011;59968;51.084;16.748;2023-11-21T11:13:39;5.50;;;2.70;;
72095;SDS011;59968;51.084;16.748;2023-11-21T11:16:13;5.00;;;2.80;;
72095;SDS011;59968;51.084;16.748;2023-11-21T11:18:46;7.50;;;3.10;;
72095;SDS011;59968;51.084;16.748;2023-11-21T11:35:30;12.80;;;6.10;;
72095;SDS011;59968;51.084;16.748;2023-11-21T11:38:06;12.90;;;5.40;;
72095;SDS011;59968;51.084;16.748;2023-11-21T11:40:45;10.90;;;5.40;;
72095;SDS011;59968;51.084;16.748;2023-11-21T11:43:17;14.70;;;7.20;;
72095;SDS011;59968;51.084;16.748;2023-11-21T11:45:59;13.80;;;6.10;;
72095;SDS011;59968;51.084;16.748;2023-11-21T11:48:34;12.60;;;6.10;;
72095;SDS011;59968;51.084;16.748;2023-11-21T11:51:09;11.40;;;5.20;;
72095;SDS011;59968;51.084;16.748;2023-11-21T11:53:43;15.30;;;7.40;;
72095;SDS011;59968;51.084;16.748;2023-11-21T11:56:26;13.80;;;6.60;;
72095;SDS011;59968;51.084;16.748;2023-11-21T11:58:59;15.20;;;7.30;;
72095;SDS011;59968;51.084;16.748;2023-11-21T12:01:32;15.00;;;7.10;;
72095;SDS011;59968;51.084;16.748;2023-11-21T12:04:45;17.20;;;8.20;;
72095;SDS011;59968;51.084;16.748;2023-11-21T12:07:03;14.90;;;7.00;;
72095;SDS011;59968;51.084;16.748;2023-11-21T12:09:33;16.20;;;7.20;;
72095;SDS011;59968;51.084;16.748;2023-11-21T12:12:03;14.40;;;6.90;;
72095;SDS011;59968;51.084;16.748;2023-11-21T12:14:33;17.40;;;7.90;;
72095;SDS011;59968;51.084;16.748;2023-11-21T12:17:04;21.50;;;8.40;;
72095;SDS011;59968;51.084;16.748;2023-11-21T12:19:33;16.50;;;7.40;;
72095;SDS011;59968;51.084;16.748;2023-11-21T12:22:02;13.10;;;6.20;;
72095;SDS011;59968;51.084;16.748;2023-11-21T12:24:30;15.00;;;6.90;;
72095;SDS011;59968;51.084;16.748;2023-11-21T12:26:59;12.60;;;6.60;;
72095;SDS011;59968;51.084;16.748;2023-11-21T12:29:27;13.30;;;6.60;;
72095;SDS011;59968;51.084;16.748;2023-11-21T12:31:57;14.00;;;6.10;;
72095;SDS011;59968;51.084;16.748;2023-11-21T12:34:27;12.90;;;6.30;;
72095;SDS011;59968;51.084;16.748;2023-11-21T12:36:55;12.30;;;5.80;;
72095;SDS011;59968;51.084;16.748;2023-11-21T12:39:24;13.80;;;5.50;;
72095;SDS011;59968;51.084;16.748;2023-11-21T12:41:52;7.20;;;3.80;;
72095;SDS011;59968;51.084;16.748;2023-11-21T12:44:21;10.20;;;4.60;;
72095;SDS011;59968;51.084;16.748;2023-11-21T12:46:52;10.30;;;4.90;;
72095;SDS011;59968;51.084;16.748;2023-11-21T12:49:20;7.20;;;3.10;;
72095;SDS011;59968;51.084;16.748;2023-11-21T12:51:50;10.10;;;4.50;;
72095;SDS011;59968;51.084;16.748;2023-11-21T12:54:19;10.10;;;4.20;;
72095;SDS011;59968;51.084;16.748;2023-11-21T12:56:48;8.60;;;4.00;;
72095;SDS011;59968;51.084;16.748;2023-11-21T12:59:17;9.40;;;4.60;;
72095;SDS011;59968;51.084;16.748;2023-11-21T13:01:46;11.40;;;4.70;;
72095;SDS011;59968;51.084;16.748;2023-11-21T13:04:15;8.00;;;3.70;;
72095;SDS011;59968;51.084;16.748;2023-11-21T13:06:44;7.70;;;3.80;;
72095;SDS011;59968;51.084;16.748;2023-11-21T13:09:12;7.60;;;3.50;;
72095;SDS011;59968;51.084;16.748;2023-11-21T13:11:46;8.40;;;4.00;;
72095;SDS011;59968;51.084;16.748;2023-11-21T13:14:15;9.70;;;4.90;;
72095;SDS011;59968;51.084;16.748;2023-11-21T13:16:43;9.50;;;4.80;;
72095;SDS011;59968;51.084;16.748;2023-11-21T13:19:14;7.10;;;3.90;;
72095;SDS011;59968;51.084;16.748;2023-11-21T13:21:43;8.10;;;4.40;;
72095;SDS011;59968;51.084;16.748;2023-11-21T13:24:12;8.60;;;4.00;;
72095;SDS011;59968;51.084;16.748;2023-11-21T13:26:40;8.50;;;4.10;;
72095;SDS011;59968;51.084;16.748;2023-11-21T13:29:09;8.50;;;4.20;;
72095;SDS011;59968;51.084;16.748;2023-11-21T13:31:41;10.70;;;4.40;;
72095;SDS011;59968;51.084;16.748;2023-11-21T13:34:10;8.90;;;4.50;;
72095;SDS011;59968;51.084;16.748;2023-11-21T13:36:48;8.20;;;3.80;;
72095;SDS011;59968;51.084;16.748;2023-11-21T13:39:20;7.20;;;3.40;;
72095;SDS011;59968;51.084;16.748;2023-11-21T13:41:49;5.40;;;2.80;;
72095;SDS011;59968;51.084;16.748;2023-11-21T13:44:18;6.30;;;2.80;;
72095;SDS011;59968;51.084;16.748;2023-11-21T13:47:03;10.30;;;5.40;;
72095;SDS011;59968;51.084;16.748;2023-11-21T13:49:34;8.90;;;4.80;;
72095;SDS011;59968;51.084;16.748;2023-11-21T13:52:09;10.60;;;5.70;;
72095;SDS011;59968;51.084;16.748;2023-11-21T13:54:43;9.90;;;5.20;;
72095;SDS011;59968;51.084;16.748;2023-11-21T13:57:11;10.60;;;5.40;;
72095;SDS011;59968;51.084;16.748;2023-11-21T13:59:39;8.10;;;4.20;;
72095;SDS011;59968;51.084;16.748;2023-11-21T14:02:08;8.60;;;4.40;;
72095;SDS011;59968;51.084;16.748;2023-11-21T14:04:46;6.30;;;3.40;;
72095;SDS011;59968;51.084;16.748;2023-11-21T14:07:17;5.90;;;3.00;;
72095;SDS011;59968;51.084;16.748;2023-11-21T14:09:53;7.80;;;4.00;;
72095;SDS011;59968;51.084;16.748;2023-11-21T14:12:21;7.40;;;3.30;;
72095;SDS011;59968;51.084;16.748;2023-11-21T14:14:49;7.90;;;4.50;;
72095;SDS011;59968;51.084;16.748;2023-11-21T14:17:18;8.70;;;3.80;;
72095;SDS011;59968;51.084;16.748;2023-11-21T14:19:46;9.90;;;5.20;;
72095;SDS011;59968;51.084;16.748;2023-11-21T14:22:15;11.40;;;6.10;;
72095;SDS011;59968;51.084;16.748;2023-11-21T14:24:45;11.30;;;5.30;;
72095;SDS011;59968;51.084;16.748;2023-11-21T14:27:14;10.10;;;5.40;;
72095;SDS011;59968;51.084;16.748;2023-11-21T14:29:45;9.00;;;4.80;;
72095;SDS011;59968;51.084;16.748;2023-11-21T14:32:15;10.60;;;5.20;;
72095;SDS011;59968;51.084;16.748;2023-11-21T14:34:44;10.50;;;5.30;;
72095;SDS011;59968;51.084;16.748;2023-11-21T14:37:15;11.00;;;5.60;;
72095;SDS011;59968;51.084;16.748;2023-11-21T14:39:43;11.20;;;6.00;;
72095;SDS011;59968;51.084;16.748;2023-11-21T14:42:16;14.50;;;7.50;;
72095;SDS011;59968;51.084;16.748;2023-11-21T14:44:49;13.60;;;6.70;;
72095;SDS011;59968;51.084;16.748;2023-11-21T14:47:18;11.80;;;6.90;;
72095;SDS011;59968;51.084;16.748;2023-11-21T14:49:53;10.50;;;5.30;;
72095;SDS011;59968;51.084;16.748;2023-11-21T14:52:24;15.00;;;7.10;;
72095;SDS011;59968;51.084;16.748;2023-11-21T14:55:03;16.40;;;8.00;;
72095;SDS011;59968;51.084;16.748;2023-11-21T14:57:52;11.30;;;5.90;;
72095;SDS011;59968;51.084;16.748;2023-11-21T15:00:21;9.20;;;4.30;;
72095;SDS011;59968;51.084;16.748;2023-11-21T15:03:06;12.00;;;5.70;;